createdAt,value
2022-11-17T00:00:42.307Z,15.88
2022-11-17T00:03:16.097Z,15.65
2022-11-17T00:05:44.499Z,15.48
2022-11-17T00:08:12.551Z,15.60
2022-11-17T00:10:40.200Z,16.25
2022-11-17T00:13:29.162Z,16.98
2022-11-17T00:15:57.156Z,18.77
2022-11-17T00:18:43.157Z,20.65
2022-11-17T00:21:19.142Z,19.87
2022-11-17T00:23:47.945Z,30.67
2022-11-17T00:26:17.465Z,24.00
2022-11-17T00:28:45.475Z,19.50
2022-11-17T00:31:33.302Z,13.05
2022-11-17T00:34:07.399Z,13.80
2022-11-17T00:36:37.084Z,17.87
2022-11-17T00:39:06.141Z,15.75
2022-11-17T00:41:33.891Z,15.57
2022-11-17T00:44:01.586Z,17.40
2022-11-17T00:46:29.813Z,14.90
2022-11-17T00:48:57.596Z,12.70
2022-11-17T00:51:25.648Z,13.65
2022-11-17T00:53:53.640Z,12.77
2022-11-17T00:56:21.450Z,12.68
2022-11-17T00:58:49.268Z,9.73
2022-11-17T01:01:17.800Z,12.15
2022-11-17T01:03:45.630Z,9.15
2022-11-17T01:06:16.212Z,8.85
2022-11-17T01:08:44.545Z,9.15
2022-11-17T01:11:19.533Z,8.75
2022-11-17T01:13:48.207Z,10.68
2022-11-17T01:16:18.715Z,14.15
2022-11-17T01:18:48.677Z,10.45
2022-11-17T01:21:19.861Z,10.00
2022-11-17T01:23:49.024Z,11.93
2022-11-17T01:26:21.856Z,12.27
2022-11-17T01:28:50.074Z,12.75
2022-11-17T01:31:29.729Z,9.43
2022-11-17T01:33:57.870Z,8.85
2022-11-17T01:36:51.868Z,8.15
2022-11-17T01:39:19.832Z,8.90
2022-11-17T01:41:47.939Z,8.60
2022-11-17T01:44:40.514Z,8.32
2022-11-17T01:47:20.628Z,8.45
2022-11-17T01:49:52.210Z,8.52
2022-11-17T01:52:21.120Z,9.57
2022-11-17T01:54:49.299Z,11.52
2022-11-17T01:57:29.516Z,11.00
2022-11-17T02:00:02.207Z,10.60
2022-11-17T02:02:33.898Z,11.57
2022-11-17T02:05:33.169Z,10.35
2022-11-17T02:08:04.630Z,10.52
2022-11-17T02:10:34.405Z,7.78
2022-11-17T02:13:03.191Z,7.70
2022-11-17T02:15:31.657Z,7.90
2022-11-17T02:18:00.678Z,7.47
2022-11-17T02:20:37.824Z,9.30
2022-11-17T02:23:51.664Z,6.95
2022-11-17T02:26:34.547Z,7.22
2022-11-17T02:29:11.619Z,8.27
2022-11-17T02:32:03.349Z,6.95
2022-11-17T02:37:11.076Z,5.65
2022-11-17T02:39:47.501Z,5.22
2022-11-17T02:42:47.715Z,5.28
2022-11-17T02:45:24.979Z,4.90
2022-11-17T02:47:56.183Z,5.35
2022-11-17T02:50:28.563Z,5.00
2022-11-17T02:52:57.136Z,5.45
2022-11-17T02:55:24.953Z,4.87
2022-11-17T02:57:52.638Z,5.30
2022-11-17T03:00:21.165Z,4.87
2022-11-17T03:02:57.931Z,5.10
2022-11-17T03:05:38.088Z,5.32
2022-11-17T03:08:11.658Z,4.40
2022-11-17T03:11:02.871Z,5.50
2022-11-17T03:13:40.569Z,5.45
2022-11-17T03:16:29.624Z,5.47
2022-11-17T03:19:02.186Z,5.82
2022-11-17T03:21:33.372Z,6.55
2022-11-17T03:24:32.938Z,6.20
2022-11-17T03:27:06.379Z,6.40
2022-11-17T03:29:37.177Z,6.95
2022-11-17T03:32:06.667Z,7.03
2022-11-17T03:34:41.566Z,7.28
2022-11-17T03:37:12.032Z,6.75
2022-11-17T03:39:48.469Z,7.45
2022-11-17T03:42:27.518Z,7.25
2022-11-17T03:45:04.600Z,6.50
2022-11-17T03:47:34.628Z,7.20
2022-11-17T03:50:05.715Z,6.20
2022-11-17T03:52:36.095Z,6.82
2022-11-17T03:55:05.166Z,6.28
2022-11-17T03:57:37.497Z,6.07
2022-11-17T04:00:12.060Z,5.72
2022-11-17T04:02:45.071Z,6.03
2022-11-17T04:05:16.625Z,5.62
2022-11-17T04:10:21.883Z,6.30
2022-11-17T04:13:08.164Z,6.28
2022-11-17T04:15:55.226Z,6.32
2022-11-17T04:18:24.088Z,6.72
2022-11-17T04:20:57.342Z,6.22
2022-11-17T04:23:25.974Z,6.68
2022-11-17T04:26:15.257Z,7.45
2022-11-17T04:28:46.293Z,6.55
2022-11-17T04:31:17.139Z,6.90
2022-11-17T04:33:50.274Z,6.97
2022-11-17T04:36:21.114Z,6.45
2022-11-17T04:38:51.150Z,6.40
2022-11-17T04:41:39.391Z,6.50
2022-11-17T04:44:09.034Z,6.55
2022-11-17T04:46:38.337Z,6.72
2022-11-17T04:49:07.151Z,7.05
2022-11-17T04:51:36.029Z,7.20
2022-11-17T04:54:05.234Z,7.45
2022-11-17T04:56:32.981Z,8.02
2022-11-17T04:59:00.631Z,7.55
2022-11-17T05:01:28.996Z,7.97
2022-11-17T05:04:02.257Z,7.55
2022-11-17T05:06:35.854Z,7.68
2022-11-17T05:09:07.435Z,7.57
2022-11-17T05:14:23.974Z,7.22
2022-11-17T05:17:11.167Z,8.00
2022-11-17T05:19:40.886Z,7.10
2022-11-17T05:22:28.601Z,7.65
2022-11-17T05:24:56.786Z,7.07
2022-11-17T05:27:25.174Z,6.85
2022-11-17T05:29:53.370Z,6.90
2022-11-17T05:32:21.143Z,7.10
2022-11-17T05:34:49.246Z,7.62
2022-11-17T05:37:16.994Z,6.40
2022-11-17T05:39:44.616Z,6.50
2022-11-17T05:42:12.663Z,6.40
2022-11-17T05:44:40.364Z,6.03
2022-11-17T05:47:08.679Z,6.18
2022-11-17T05:49:36.623Z,6.03
2022-11-17T05:52:04.405Z,6.15
2022-11-17T05:54:32.073Z,6.60
2022-11-17T05:57:14.807Z,6.65
2022-11-17T05:59:50.602Z,6.75
2022-11-17T06:02:29.224Z,7.95
2022-11-17T06:04:57.213Z,7.57
2022-11-17T06:07:24.959Z,7.47
2022-11-17T06:09:53.405Z,8.05
2022-11-17T06:12:21.301Z,7.90
2022-11-17T06:14:48.949Z,8.98
2022-11-17T06:17:33.858Z,8.32
2022-11-17T06:20:08.563Z,8.98
2022-11-17T06:22:36.500Z,9.07
2022-11-17T06:25:08.069Z,8.73
2022-11-17T06:30:06.160Z,8.20
2022-11-17T06:32:37.339Z,8.68
2022-11-17T06:35:08.829Z,8.25
2022-11-17T06:37:36.464Z,8.32
2022-11-17T06:40:04.611Z,8.07
2022-11-17T06:42:51.303Z,7.95
2022-11-17T06:45:18.892Z,7.85
2022-11-17T06:47:46.893Z,7.70
2022-11-17T06:50:14.628Z,8.13
2022-11-17T06:52:42.327Z,7.47
2022-11-17T06:55:10.844Z,6.72
2022-11-17T06:57:38.579Z,7.18
2022-11-17T07:00:07.248Z,7.53
2022-11-17T07:02:36.816Z,7.18
2022-11-17T07:05:05.116Z,6.97
2022-11-17T07:07:33.055Z,7.07
2022-11-17T07:10:01.159Z,6.18
2022-11-17T07:12:28.847Z,6.95
2022-11-17T07:14:56.589Z,5.65
2022-11-17T07:17:24.677Z,7.12
2022-11-17T07:19:53.712Z,7.45
2022-11-17T07:22:21.486Z,4.87
2022-11-17T07:24:49.535Z,6.62
2022-11-17T07:27:17.255Z,5.10
2022-11-17T07:29:45.147Z,4.30
2022-11-17T07:32:14.284Z,4.70
2022-11-17T07:34:42.688Z,3.97
2022-11-17T07:37:10.340Z,3.70
2022-11-17T07:39:38.828Z,3.58
2022-11-17T07:42:06.656Z,5.82
2022-11-17T07:44:34.520Z,7.35
2022-11-17T07:47:02.563Z,4.57
2022-11-17T07:49:30.261Z,4.80
2022-11-17T07:51:58.061Z,5.72
2022-11-17T07:54:26.010Z,4.72
2022-11-17T07:56:53.773Z,4.35
2022-11-17T07:59:21.892Z,4.75
2022-11-17T08:01:50.077Z,4.15
2022-11-17T08:04:18.097Z,3.50
2022-11-17T08:06:45.848Z,4.20
2022-11-17T08:09:15.601Z,4.87
2022-11-17T08:11:44.213Z,4.00
2022-11-17T08:14:11.949Z,4.70
2022-11-17T08:16:39.547Z,3.67
2022-11-17T08:19:07.631Z,3.92
2022-11-17T08:21:36.873Z,3.60
2022-11-17T08:24:04.827Z,4.40
2022-11-17T08:26:32.830Z,4.05
2022-11-17T08:29:01.991Z,9.32
2022-11-17T08:31:29.700Z,3.70
2022-11-17T08:33:58.833Z,3.70
2022-11-17T08:36:26.943Z,5.12
2022-11-17T08:38:55.732Z,40.03
2022-11-17T08:41:23.852Z,25.17
2022-11-17T08:43:51.838Z,4.60
2022-11-17T08:46:19.723Z,4.50
2022-11-17T08:48:52.201Z,4.25
2022-11-17T08:51:23.330Z,6.03
2022-11-17T08:53:51.253Z,6.10
2022-11-17T08:56:18.943Z,22.58
2022-11-17T08:58:46.636Z,6.93
2022-11-17T09:01:16.785Z,5.00
2022-11-17T09:03:46.663Z,5.50
2022-11-17T09:06:16.780Z,5.65
2022-11-17T09:08:46.623Z,8.80
2022-11-17T09:11:16.855Z,5.85
2022-11-17T09:13:45.938Z,7.07
2022-11-17T09:16:14.744Z,6.20
2022-11-17T09:18:43.197Z,7.15
2022-11-17T09:21:15.600Z,8.50
2022-11-17T09:23:43.780Z,7.12
2022-11-17T09:26:13.921Z,6.95
2022-11-17T09:28:42.483Z,7.30
2022-11-17T09:31:21.588Z,7.25
2022-11-17T09:33:49.372Z,7.20
2022-11-17T09:36:17.443Z,7.03
2022-11-17T09:38:46.832Z,6.82
2022-11-17T09:41:32.643Z,6.50
2022-11-17T09:44:18.299Z,6.47
2022-11-17T09:47:13.396Z,6.80
2022-11-17T09:50:22.309Z,7.15
2022-11-17T09:53:10.175Z,6.70
2022-11-17T09:55:47.322Z,5.70
2022-11-17T09:58:42.252Z,6.60
2022-11-17T10:01:13.161Z,6.07
2022-11-17T10:03:46.358Z,5.80
2022-11-17T10:06:19.440Z,6.72
2022-11-17T10:09:05.896Z,5.55
2022-11-17T10:11:38.294Z,4.65
2022-11-17T10:14:10.031Z,3.83
2022-11-17T10:16:39.932Z,3.75
2022-11-17T10:19:18.160Z,3.30
2022-11-17T10:21:54.214Z,3.55
2022-11-17T10:24:46.884Z,3.62
2022-11-17T10:27:17.311Z,3.15
2022-11-17T10:30:20.676Z,3.83
2022-11-17T10:32:53.606Z,2.92
2022-11-17T10:35:35.962Z,3.40
2022-11-17T10:38:08.595Z,2.85
2022-11-17T10:40:39.328Z,4.57
2022-11-17T10:43:12.832Z,4.47
2022-11-17T10:45:55.162Z,4.10
2022-11-17T10:48:35.908Z,4.87
2022-11-17T10:51:22.508Z,4.37
2022-11-17T10:54:14.945Z,5.37
2022-11-17T10:56:49.574Z,4.90
2022-11-17T10:59:41.770Z,5.25
2022-11-17T11:02:30.012Z,9.43
2022-11-17T11:05:10.113Z,3.55
2022-11-17T11:07:38.741Z,2.77
2022-11-17T11:10:43.722Z,3.00
2022-11-17T11:13:39.734Z,2.75
2022-11-17T11:16:11.481Z,2.90
2022-11-17T11:18:39.816Z,3.58
2022-11-17T11:21:31.823Z,5.35
2022-11-17T11:24:05.523Z,5.57
2022-11-17T11:27:01.180Z,4.72
2022-11-17T11:29:58.247Z,3.70
2022-11-17T11:33:08.198Z,4.47
2022-11-17T11:35:41.999Z,3.17
2022-11-17T11:38:18.754Z,3.85
2022-11-17T11:41:10.757Z,3.50
2022-11-17T11:43:55.681Z,3.37
2022-11-17T11:46:42.053Z,3.20
2022-11-17T11:49:31.098Z,3.17
2022-11-17T11:52:00.855Z,2.45
2022-11-17T11:54:40.449Z,2.33
2022-11-17T11:57:17.059Z,2.25
2022-11-17T12:00:04.438Z,4.78
2022-11-17T12:03:02.869Z,3.60
2022-11-17T12:05:36.617Z,2.70
2022-11-17T12:08:25.127Z,3.20
2022-11-17T12:11:26.259Z,2.25
2022-11-17T12:13:54.722Z,2.20
2022-11-17T12:16:36.943Z,1.90
2022-11-17T12:19:42.963Z,1.98
2022-11-17T12:22:34.554Z,2.10
2022-11-17T12:25:28.143Z,2.22
2022-11-17T12:27:56.455Z,2.60
2022-11-17T12:30:32.945Z,3.15
2022-11-17T12:33:10.295Z,3.70
2022-11-17T12:35:39.915Z,4.20
2022-11-17T12:38:14.153Z,4.10
2022-11-17T12:40:43.334Z,2.47
2022-11-17T12:43:23.225Z,1.80
2022-11-17T12:48:37.784Z,2.22
2022-11-17T12:51:39.351Z,3.20
2022-11-17T12:54:21.211Z,1.80
2022-11-17T12:56:54.055Z,2.00
2022-11-17T12:59:57.429Z,1.95
2022-11-17T13:02:38.204Z,2.50
2022-11-17T13:05:16.053Z,2.75
2022-11-17T13:07:43.884Z,12.57
2022-11-17T13:10:31.852Z,5.53
2022-11-17T13:13:10.625Z,2.92
2022-11-17T13:15:40.048Z,2.80
2022-11-17T13:18:18.695Z,2.40
2022-11-17T13:20:49.128Z,2.45
2022-11-17T13:23:26.435Z,2.72
2022-11-17T13:26:11.427Z,2.72
2022-11-17T13:28:39.237Z,3.05
2022-11-17T13:31:16.659Z,2.90
2022-11-17T13:33:56.084Z,4.62
2022-11-17T13:36:27.221Z,3.35
2022-11-17T13:38:57.449Z,2.58
2022-11-17T13:41:26.035Z,3.63
2022-11-17T13:43:55.331Z,4.50
2022-11-17T13:46:23.076Z,5.75
2022-11-17T13:48:51.761Z,6.37
2022-11-17T13:51:24.777Z,7.20
2022-11-17T13:54:13.618Z,4.57
2022-11-17T13:56:49.910Z,4.12
2022-11-17T13:59:37.738Z,3.90
2022-11-17T14:02:19.162Z,4.65
2022-11-17T14:05:16.816Z,4.55
2022-11-17T14:07:45.978Z,3.80
2022-11-17T14:13:05.451Z,3.90
2022-11-17T14:15:39.869Z,3.90
2022-11-17T14:18:39.300Z,2.62
2022-11-17T14:21:16.213Z,3.03
2022-11-17T14:24:07.473Z,5.10
2022-11-17T14:26:41.705Z,5.78
2022-11-17T14:29:12.784Z,4.37
2022-11-17T14:31:41.343Z,4.12
2022-11-17T14:34:29.097Z,3.97
2022-11-17T14:37:17.699Z,4.62
2022-11-17T14:40:07.772Z,6.35
2022-11-17T14:42:57.983Z,6.50
2022-11-17T14:45:45.895Z,5.40
2022-11-17T14:48:19.335Z,5.25
2022-11-17T14:50:57.752Z,6.28
2022-11-17T14:53:27.027Z,4.82
2022-11-17T14:55:54.809Z,4.55
2022-11-17T14:58:22.554Z,4.55
2022-11-17T15:00:51.007Z,4.30
2022-11-17T15:03:18.710Z,6.65
2022-11-17T15:05:46.482Z,15.07
2022-11-17T15:08:14.853Z,8.85
2022-11-17T15:10:46.835Z,4.62
2022-11-17T15:13:38.104Z,3.05
2022-11-17T15:16:07.209Z,3.50
2022-11-17T15:18:36.513Z,3.85
2022-11-17T15:21:10.685Z,4.15
2022-11-17T15:23:41.238Z,4.95
2022-11-17T15:26:12.988Z,6.82
2022-11-17T15:28:41.689Z,6.07
2022-11-17T15:31:15.751Z,5.00
2022-11-17T15:33:46.813Z,4.90
2022-11-17T15:36:20.727Z,5.70
2022-11-17T15:38:49.414Z,4.65
2022-11-17T15:41:17.402Z,4.40
2022-11-17T15:43:45.897Z,4.60
2022-11-17T15:46:18.351Z,5.28
2022-11-17T15:48:49.220Z,5.05
2022-11-17T15:51:25.381Z,5.87
2022-11-17T15:54:00.146Z,6.95
2022-11-17T15:56:30.803Z,9.60
2022-11-17T15:59:05.044Z,13.25
2022-11-17T16:01:36.545Z,11.85
2022-11-17T16:04:13.359Z,8.13
2022-11-17T16:06:43.114Z,8.15
2022-11-17T16:09:15.207Z,7.72
2022-11-17T16:11:43.975Z,6.50
2022-11-17T16:14:12.470Z,9.32
2022-11-17T16:16:40.300Z,8.57
2022-11-17T16:19:08.353Z,7.87
2022-11-17T16:21:36.433Z,9.50
2022-11-17T16:24:04.418Z,11.32
2022-11-17T16:26:33.955Z,12.80
2022-11-17T16:29:05.270Z,14.95
2022-11-17T16:31:34.911Z,15.65
2022-11-17T16:34:14.290Z,15.52
2022-11-17T16:36:43.421Z,15.55
2022-11-17T16:39:20.200Z,11.12
2022-11-17T16:41:51.383Z,12.10
2022-11-17T16:44:20.501Z,13.48
2022-11-17T16:46:50.031Z,14.02
2022-11-17T16:49:19.338Z,14.95
2022-11-17T16:51:52.803Z,12.63
2022-11-17T16:54:21.418Z,12.18
2022-11-17T16:56:49.550Z,11.25
2022-11-17T16:59:17.493Z,12.37
2022-11-17T17:01:45.786Z,15.70
2022-11-17T17:04:38.856Z,14.55
2022-11-17T17:07:06.733Z,14.98
2022-11-17T17:09:35.002Z,13.07
2022-11-17T17:12:02.712Z,10.55
2022-11-17T17:14:30.633Z,11.15
2022-11-17T17:16:58.883Z,8.88
2022-11-17T17:19:27.418Z,10.50
2022-11-17T17:21:55.348Z,20.75
2022-11-17T17:24:23.488Z,30.00
2022-11-17T17:26:51.117Z,25.20
2022-11-17T17:29:19.761Z,32.13
2022-11-17T17:31:47.828Z,42.83
2022-11-17T17:34:22.829Z,39.80
2022-11-17T17:37:50.775Z,26.90
2022-11-17T17:41:05.549Z,15.73
2022-11-17T17:44:16.100Z,14.38
2022-11-17T17:47:08.833Z,13.88
2022-11-17T17:49:37.447Z,13.27
2022-11-17T17:55:32.846Z,9.80
2022-11-17T17:58:42.263Z,10.93
2022-11-17T18:01:37.123Z,11.63
2022-11-17T18:04:25.123Z,13.48
2022-11-17T18:06:53.101Z,14.57
2022-11-17T18:09:24.864Z,17.70
2022-11-17T18:11:52.722Z,16.60
2022-11-17T18:14:24.472Z,14.87
2022-11-17T18:16:54.283Z,13.30
2022-11-17T18:19:31.428Z,12.82
2022-11-17T18:22:05.448Z,13.70
2022-11-17T18:24:40.891Z,11.63
2022-11-17T18:27:10.134Z,10.15
2022-11-17T18:29:38.061Z,10.35
2022-11-17T18:32:05.874Z,9.85
2022-11-17T18:34:34.610Z,10.50
2022-11-17T18:37:02.573Z,10.07
2022-11-17T18:39:32.525Z,10.40
2022-11-17T18:42:00.789Z,9.05
2022-11-17T18:44:28.927Z,11.10
2022-11-17T18:47:01.343Z,10.70
2022-11-17T18:49:31.563Z,11.02
2022-11-17T18:51:59.727Z,13.75
2022-11-17T18:54:27.627Z,15.48
2022-11-17T18:56:56.328Z,18.02
2022-11-17T18:59:24.326Z,16.27
2022-11-17T19:01:53.991Z,76.60
2022-11-17T19:04:22.234Z,75.32
2022-11-17T19:06:50.968Z,53.28
2022-11-17T19:09:19.600Z,19.02
2022-11-17T19:11:47.943Z,21.27
2022-11-17T19:14:15.739Z,17.75
2022-11-17T19:16:45.312Z,14.57
2022-11-17T19:19:14.553Z,24.50
2022-11-17T19:21:43.583Z,18.75
2022-11-17T19:24:11.975Z,16.52
2022-11-17T19:26:40.308Z,13.80
2022-11-17T19:29:17.255Z,14.40
2022-11-17T19:31:47.646Z,16.75
2022-11-17T19:34:16.002Z,16.52
2022-11-17T19:36:44.935Z,15.20
2022-11-17T19:39:14.257Z,15.05
2022-11-17T19:41:47.356Z,16.75
2022-11-17T19:44:15.662Z,15.98
2022-11-17T19:46:43.562Z,15.73
2022-11-17T19:49:12.789Z,14.80
2022-11-17T19:51:42.510Z,23.33
2022-11-17T19:54:14.323Z,17.98
2022-11-17T19:56:42.580Z,22.60
2022-11-17T19:59:15.676Z,16.58
2022-11-17T20:01:45.228Z,16.95
2022-11-17T20:04:13.404Z,17.25
2022-11-17T20:06:41.348Z,16.45
2022-11-17T20:09:13.902Z,18.83
2022-11-17T20:11:42.551Z,15.10
2022-11-17T20:14:10.956Z,14.18
2022-11-17T20:16:38.910Z,17.70
2022-11-17T20:19:07.027Z,17.10
2022-11-17T20:21:34.979Z,16.30
2022-11-17T20:24:03.359Z,17.55
2022-11-17T20:26:35.403Z,16.98
2022-11-17T20:29:05.435Z,16.33
2022-11-17T20:31:35.403Z,63.65
2022-11-17T20:34:05.571Z,88.35
2022-11-17T20:36:35.359Z,37.57
2022-11-17T20:39:05.816Z,22.65
2022-11-17T20:41:34.156Z,16.70
2022-11-17T20:44:03.407Z,23.50
2022-11-17T20:46:31.391Z,17.30
2022-11-17T20:48:59.850Z,18.12
2022-11-17T20:51:28.221Z,15.73
2022-11-17T20:53:56.127Z,16.08
2022-11-17T20:56:24.187Z,16.75
2022-11-17T20:58:51.865Z,15.63
2022-11-17T21:01:21.813Z,17.87
2022-11-17T21:03:50.388Z,15.95
2022-11-17T21:06:19.812Z,15.68
2022-11-17T21:08:47.589Z,16.75
2022-11-17T21:11:36.672Z,16.08
2022-11-17T21:14:05.695Z,16.30
2022-11-17T21:16:34.893Z,15.30
2022-11-17T21:19:02.702Z,16.05
2022-11-17T21:21:30.441Z,17.25
2022-11-17T21:23:58.618Z,16.35
2022-11-17T21:26:27.857Z,16.10
2022-11-17T21:28:55.768Z,16.52
2022-11-17T21:31:26.868Z,15.82
2022-11-17T21:33:59.778Z,15.63
2022-11-17T21:36:29.833Z,19.12
2022-11-17T21:38:58.316Z,16.33
2022-11-17T21:41:30.974Z,15.75
2022-11-17T21:44:00.558Z,17.60
2022-11-17T21:46:31.435Z,18.85
2022-11-17T21:51:30.085Z,15.20
2022-11-17T21:54:00.218Z,14.63
2022-11-17T21:56:29.245Z,16.20
2022-11-17T21:59:02.504Z,17.42
2022-11-17T22:01:31.183Z,15.50
2022-11-17T22:03:59.197Z,17.75
2022-11-17T22:06:27.509Z,15.38
2022-11-17T22:08:56.495Z,16.77
2022-11-17T22:11:37.465Z,15.38
2022-11-17T22:14:12.684Z,14.65
2022-11-17T22:16:48.391Z,14.65
2022-11-17T22:19:17.628Z,14.48
2022-11-17T22:21:48.656Z,15.25
2022-11-17T22:24:16.410Z,15.93
2022-11-17T22:26:44.813Z,15.40
2022-11-17T22:29:15.863Z,16.02
2022-11-17T22:31:44.678Z,14.35
2022-11-17T22:34:13.766Z,13.32
2022-11-17T22:36:41.731Z,13.77
2022-11-17T22:39:09.541Z,13.90
2022-11-17T22:41:37.699Z,13.23
2022-11-17T22:44:06.399Z,14.68
2022-11-17T22:46:35.006Z,14.07
2022-11-17T22:49:03.367Z,13.73
2022-11-17T22:51:49.677Z,13.32
2022-11-17T22:54:17.705Z,13.80
2022-11-17T22:56:46.175Z,17.67
2022-11-17T22:59:13.854Z,13.07
2022-11-17T23:01:42.133Z,12.90
2022-11-17T23:04:11.448Z,13.27
2022-11-17T23:06:39.163Z,12.75
2022-11-17T23:09:07.412Z,13.55
2022-11-17T23:11:37.911Z,14.45
2022-11-17T23:14:08.146Z,12.88
2022-11-17T23:16:37.699Z,13.17
2022-11-17T23:19:06.532Z,13.62
2022-11-17T23:21:34.251Z,17.37
2022-11-17T23:24:02.357Z,13.82
2022-11-17T23:26:30.022Z,13.68
2022-11-17T23:28:58.328Z,13.60
2022-11-17T23:31:28.001Z,14.15
2022-11-17T23:33:55.640Z,13.40
2022-11-17T23:36:24.134Z,13.85
2022-11-17T23:38:54.270Z,12.45
2022-11-17T23:41:22.381Z,13.20
2022-11-17T23:43:51.755Z,12.50
2022-11-17T23:46:22.732Z,13.43
2022-11-17T23:48:50.441Z,13.02
2022-11-17T23:51:20.762Z,13.75
2022-11-17T23:53:49.720Z,13.38
2022-11-17T23:56:19.636Z,12.95
2022-11-17T23:58:48.119Z,12.98
